sensor_id;sensor_type;location;lat;lon;timestamp;temperature;humidity
1259;DHT22;619;51.472;6.628;2023-03-26T00:00:58;14.90;84.90
1259;DHT22;619;51.472;6.628;2023-03-26T00:03:24;14.90;84.70
1259;DHT22;619;51.472;6.628;2023-03-26T00:06:01;14.90;84.70
1259;DHT22;619;51.472;6.628;2023-03-26T00:08:28;15.00;84.70
1259;DHT22;619;51.472;6.628;2023-03-26T00:10:56;15.00;84.60
1259;DHT22;619;51.472;6.628;2023-03-26T00:13:24;15.00;84.50
1259;DHT22;619;51.472;6.628;2023-03-26T00:15:50;15.10;84.50
1259;DHT22;619;51.472;6.628;2023-03-26T00:18:19;15.10;84.50
1259;DHT22;619;51.472;6.628;2023-03-26T00:20:46;15.10;84.30
1259;DHT22;619;51.472;6.628;2023-03-26T00:23:14;15.10;84.20
1259;DHT22;619;51.472;6.628;2023-03-26T00:25:39;15.10;84.80
1259;DHT22;619;51.472;6.628;2023-03-26T00:28:07;15.20;84.20
1259;DHT22;619;51.472;6.628;2023-03-26T00:30:33;15.20;84.00
1259;DHT22;619;51.472;6.628;2023-03-26T00:33:00;15.20;83.90
1259;DHT22;619;51.472;6.628;2023-03-26T00:35:26;15.20;83.80
1259;DHT22;619;51.472;6.628;2023-03-26T00:37:53;15.10;83.60
1259;DHT22;619;51.472;6.628;2023-03-26T00:40:22;15.10;83.60
1259;DHT22;619;51.472;6.628;2023-03-26T00:42:55;15.10;83.50
1259;DHT22;619;51.472;6.628;2023-03-26T00:45:23;15.00;83.40
1259;DHT22;619;51.472;6.628;2023-03-26T00:47:48;15.00;83.50
1259;DHT22;619;51.472;6.628;2023-03-26T00:50:14;15.00;83.50
1259;DHT22;619;51.472;6.628;2023-03-26T00:52:46;15.00;83.60
1259;DHT22;619;51.472;6.628;2023-03-26T00:55:16;15.00;83.70
1259;DHT22;619;51.472;6.628;2023-03-26T00:57:42;15.00;83.90
1259;DHT22;619;51.472;6.628;2023-03-26T01:00:11;15.00;84.00
1259;DHT22;619;51.472;6.628;2023-03-26T01:02:44;15.00;84.00
1259;DHT22;619;51.472;6.628;2023-03-26T01:08:10;15.10;84.20
1259;DHT22;619;51.472;6.628;2023-03-26T01:10:42;15.10;84.10
1259;DHT22;619;51.472;6.628;2023-03-26T01:13:16;15.20;84.00
1259;DHT22;619;51.472;6.628;2023-03-26T01:15:44;15.20;83.90
1259;DHT22;619;51.472;6.628;2023-03-26T01:18:17;15.20;83.70
1259;DHT22;619;51.472;6.628;2023-03-26T01:20:46;15.20;83.50
1259;DHT22;619;51.472;6.628;2023-03-26T01:23:19;15.20;83.40
1259;DHT22;619;51.472;6.628;2023-03-26T01:25:53;15.20;83.30
1259;DHT22;619;51.472;6.628;2023-03-26T01:28:23;15.20;84.00
1259;DHT22;619;51.472;6.628;2023-03-26T01:30:53;15.20;83.20
1259;DHT22;619;51.472;6.628;2023-03-26T01:33:51;15.20;83.20
1259;DHT22;619;51.472;6.628;2023-03-26T01:39:30;15.20;83.10
1259;DHT22;619;51.472;6.628;2023-03-26T01:42:05;15.20;83.00
1259;DHT22;619;51.472;6.628;2023-03-26T01:44:37;15.20;82.90
1259;DHT22;619;51.472;6.628;2023-03-26T01:47:07;15.20;82.70
1259;DHT22;619;51.472;6.628;2023-03-26T01:49:33;15.20;82.60
1259;DHT22;619;51.472;6.628;2023-03-26T01:51:58;15.20;82.50
1259;DHT22;619;51.472;6.628;2023-03-26T01:54:27;15.20;82.40
1259;DHT22;619;51.472;6.628;2023-03-26T02:09:01;15.00;81.50
1259;DHT22;619;51.472;6.628;2023-03-26T02:11:29;15.00;81.60
1259;DHT22;619;51.472;6.628;2023-03-26T02:13:55;14.90;81.60
1259;DHT22;619;51.472;6.628;2023-03-26T02:16:23;14.90;81.80
1259;DHT22;619;51.472;6.628;2023-03-26T02:18:51;14.90;81.90
1259;DHT22;619;51.472;6.628;2023-03-26T02:21:24;14.90;82.10
1259;DHT22;619;51.472;6.628;2023-03-26T02:23:55;15.00;82.30
1259;DHT22;619;51.472;6.628;2023-03-26T02:26:29;14.90;82.20
1259;DHT22;619;51.472;6.628;2023-03-26T02:28:58;14.90;82.20
1259;DHT22;619;51.472;6.628;2023-03-26T02:31:26;15.00;82.40
1259;DHT22;619;51.472;6.628;2023-03-26T02:33:55;14.90;82.30
1259;DHT22;619;51.472;6.628;2023-03-26T02:36:24;14.90;82.40
1259;DHT22;619;51.472;6.628;2023-03-26T02:38:54;14.90;82.40
1259;DHT22;619;51.472;6.628;2023-03-26T02:41:22;15.00;82.40
1259;DHT22;619;51.472;6.628;2023-03-26T02:43:50;15.00;82.30
1259;DHT22;619;51.472;6.628;2023-03-26T02:46:16;15.00;82.20
1259;DHT22;619;51.472;6.628;2023-03-26T02:48:43;15.00;82.10
1259;DHT22;619;51.472;6.628;2023-03-26T02:51:14;15.00;82.10
1259;DHT22;619;51.472;6.628;2023-03-26T02:53:42;15.00;81.90
1259;DHT22;619;51.472;6.628;2023-03-26T02:56:12;15.00;81.80
1259;DHT22;619;51.472;6.628;2023-03-26T02:58:38;15.00;81.80
1259;DHT22;619;51.472;6.628;2023-03-26T03:01:04;14.90;81.70
1259;DHT22;619;51.472;6.628;2023-03-26T03:03:32;14.90;81.70
1259;DHT22;619;51.472;6.628;2023-03-26T03:05:58;14.90;81.70
1259;DHT22;619;51.472;6.628;2023-03-26T03:08:26;14.90;81.70
1259;DHT22;619;51.472;6.628;2023-03-26T03:11:09;14.90;81.60
1259;DHT22;619;51.472;6.628;2023-03-26T03:13:37;14.80;81.40
1259;DHT22;619;51.472;6.628;2023-03-26T03:16:05;14.80;81.30
1259;DHT22;619;51.472;6.628;2023-03-26T03:18:32;14.70;81.20
1259;DHT22;619;51.472;6.628;2023-03-26T03:21:00;14.60;81.10
1259;DHT22;619;51.472;6.628;2023-03-26T03:23:28;14.60;81.30
1259;DHT22;619;51.472;6.628;2023-03-26T03:25:53;14.50;81.30
1259;DHT22;619;51.472;6.628;2023-03-26T03:28:24;14.40;81.30
1259;DHT22;619;51.472;6.628;2023-03-26T03:30:55;14.40;81.40
1259;DHT22;619;51.472;6.628;2023-03-26T03:33:22;14.30;81.50
1259;DHT22;619;51.472;6.628;2023-03-26T03:35:52;14.30;81.60
1259;DHT22;619;51.472;6.628;2023-03-26T03:38:20;14.20;81.70
1259;DHT22;619;51.472;6.628;2023-03-26T03:40:46;14.20;81.90
1259;DHT22;619;51.472;6.628;2023-03-26T03:43:12;14.10;81.90
1259;DHT22;619;51.472;6.628;2023-03-26T03:45:37;14.10;82.10
1259;DHT22;619;51.472;6.628;2023-03-26T03:48:03;14.00;82.20
1259;DHT22;619;51.472;6.628;2023-03-26T03:50:29;14.00;82.30
1259;DHT22;619;51.472;6.628;2023-03-26T03:52:55;14.00;82.30
1259;DHT22;619;51.472;6.628;2023-03-26T03:55:23;14.00;82.30
1259;DHT22;619;51.472;6.628;2023-03-26T03:57:52;13.90;82.10
1259;DHT22;619;51.472;6.628;2023-03-26T04:00:21;13.90;82.20
1259;DHT22;619;51.472;6.628;2023-03-26T04:02:48;13.90;82.20
1259;DHT22;619;51.472;6.628;2023-03-26T04:05:14;13.90;82.40
1259;DHT22;619;51.472;6.628;2023-03-26T04:07:40;13.80;82.40
1259;DHT22;619;51.472;6.628;2023-03-26T04:10:07;13.80;82.60
1259;DHT22;619;51.472;6.628;2023-03-26T04:12:33;13.80;82.70
1259;DHT22;619;51.472;6.628;2023-03-26T04:14:59;13.80;82.80
1259;DHT22;619;51.472;6.628;2023-03-26T04:17:29;13.80;82.90
1259;DHT22;619;51.472;6.628;2023-03-26T04:19:59;13.80;83.00
1259;DHT22;619;51.472;6.628;2023-03-26T04:22:37;13.80;83.20
1259;DHT22;619;51.472;6.628;2023-03-26T04:25:05;13.90;83.30
1259;DHT22;619;51.472;6.628;2023-03-26T04:27:33;13.90;83.20
1259;DHT22;619;51.472;6.628;2023-03-26T04:30:06;13.90;83.20
1259;DHT22;619;51.472;6.628;2023-03-26T04:32:32;13.90;83.20
1259;DHT22;619;51.472;6.628;2023-03-26T04:35:02;13.90;83.20
1259;DHT22;619;51.472;6.628;2023-03-26T04:37:39;14.00;83.30
1259;DHT22;619;51.472;6.628;2023-03-26T04:40:11;14.00;83.30
1259;DHT22;619;51.472;6.628;2023-03-26T04:42:39;14.10;83.40
1259;DHT22;619;51.472;6.628;2023-03-26T04:45:13;14.10;83.30
1259;DHT22;619;51.472;6.628;2023-03-26T04:47:42;14.10;83.10
1259;DHT22;619;51.472;6.628;2023-03-26T04:50:10;14.20;83.20
1259;DHT22;619;51.472;6.628;2023-03-26T04:52:36;14.20;83.00
1259;DHT22;619;51.472;6.628;2023-03-26T04:55:03;14.20;82.90
1259;DHT22;619;51.472;6.628;2023-03-26T04:57:34;14.30;83.10
1259;DHT22;619;51.472;6.628;2023-03-26T05:00:06;14.30;83.00
1259;DHT22;619;51.472;6.628;2023-03-26T05:02:43;14.30;83.00
1259;DHT22;619;51.472;6.628;2023-03-26T05:05:14;14.30;83.00
1259;DHT22;619;51.472;6.628;2023-03-26T05:07:40;14.30;82.80
1259;DHT22;619;51.472;6.628;2023-03-26T05:10:07;14.30;82.90
1259;DHT22;619;51.472;6.628;2023-03-26T05:12:35;14.30;83.00
1259;DHT22;619;51.472;6.628;2023-03-26T05:15:00;14.30;82.90
1259;DHT22;619;51.472;6.628;2023-03-26T05:17:26;14.30;83.00
1259;DHT22;619;51.472;6.628;2023-03-26T05:19:57;14.30;83.10
1259;DHT22;619;51.472;6.628;2023-03-26T05:22:25;14.30;83.10
1259;DHT22;619;51.472;6.628;2023-03-26T05:24:51;14.30;83.30
1259;DHT22;619;51.472;6.628;2023-03-26T05:27:17;14.20;83.40
1259;DHT22;619;51.472;6.628;2023-03-26T05:29:45;14.30;83.70
1259;DHT22;619;51.472;6.628;2023-03-26T05:32:11;14.30;83.70
1259;DHT22;619;51.472;6.628;2023-03-26T05:34:43;14.30;83.70
1259;DHT22;619;51.472;6.628;2023-03-26T05:37:08;14.30;83.60
1259;DHT22;619;51.472;6.628;2023-03-26T05:39:34;14.30;83.60
1259;DHT22;619;51.472;6.628;2023-03-26T05:42:00;14.30;83.60
1259;DHT22;619;51.472;6.628;2023-03-26T05:44:26;14.40;83.60
1259;DHT22;619;51.472;6.628;2023-03-26T05:46:51;14.40;83.60
1259;DHT22;619;51.472;6.628;2023-03-26T05:49:17;14.40;83.70
1259;DHT22;619;51.472;6.628;2023-03-26T05:51:45;14.50;83.80
1259;DHT22;619;51.472;6.628;2023-03-26T05:54:12;14.50;84.50
1259;DHT22;619;51.472;6.628;2023-03-26T05:56:38;14.50;83.70
1259;DHT22;619;51.472;6.628;2023-03-26T05:59:04;14.60;83.70
1259;DHT22;619;51.472;6.628;2023-03-26T06:01:29;14.60;83.60
1259;DHT22;619;51.472;6.628;2023-03-26T06:03:55;14.60;83.50
1259;DHT22;619;51.472;6.628;2023-03-26T06:06:23;14.60;83.60
1259;DHT22;619;51.472;6.628;2023-03-26T06:08:50;14.60;83.60
1259;DHT22;619;51.472;6.628;2023-03-26T06:11:19;14.60;83.60
1259;DHT22;619;51.472;6.628;2023-03-26T06:13:47;14.70;83.70
1259;DHT22;619;51.472;6.628;2023-03-26T06:16:13;14.70;83.90
1259;DHT22;619;51.472;6.628;2023-03-26T06:18:39;14.70;83.80
1259;DHT22;619;51.472;6.628;2023-03-26T06:21:05;14.80;83.90
1259;DHT22;619;51.472;6.628;2023-03-26T06:23:32;14.80;83.80
1259;DHT22;619;51.472;6.628;2023-03-26T06:26:02;14.80;83.80
1259;DHT22;619;51.472;6.628;2023-03-26T06:28:28;14.90;83.90
1259;DHT22;619;51.472;6.628;2023-03-26T06:30:58;14.90;83.90
1259;DHT22;619;51.472;6.628;2023-03-26T06:33:24;14.90;83.80
1259;DHT22;619;51.472;6.628;2023-03-26T06:35:49;15.00;83.90
1259;DHT22;619;51.472;6.628;2023-03-26T06:38:17;15.00;83.80
1259;DHT22;619;51.472;6.628;2023-03-26T06:40:46;15.00;83.60
1259;DHT22;619;51.472;6.628;2023-03-26T06:43:11;15.00;83.60
1259;DHT22;619;51.472;6.628;2023-03-26T06:45:39;15.10;83.80
1259;DHT22;619;51.472;6.628;2023-03-26T06:48:07;15.10;83.80
1259;DHT22;619;51.472;6.628;2023-03-26T06:50:33;15.20;83.90
1259;DHT22;619;51.472;6.628;2023-03-26T06:52:59;15.20;83.90
1259;DHT22;619;51.472;6.628;2023-03-26T06:55:25;15.20;83.90
1259;DHT22;619;51.472;6.628;2023-03-26T06:57:54;15.20;84.00
1259;DHT22;619;51.472;6.628;2023-03-26T07:00:23;15.30;84.10
1259;DHT22;619;51.472;6.628;2023-03-26T07:02:50;15.30;84.10
1259;DHT22;619;51.472;6.628;2023-03-26T07:05:16;15.30;84.00
1259;DHT22;619;51.472;6.628;2023-03-26T07:07:42;15.30;84.00
1259;DHT22;619;51.472;6.628;2023-03-26T07:10:10;15.30;84.00
1259;DHT22;619;51.472;6.628;2023-03-26T07:12:36;15.30;84.10
1259;DHT22;619;51.472;6.628;2023-03-26T07:15:04;15.30;84.10
1259;DHT22;619;51.472;6.628;2023-03-26T07:17:30;15.30;84.00
1259;DHT22;619;51.472;6.628;2023-03-26T07:19:56;15.30;84.00
1259;DHT22;619;51.472;6.628;2023-03-26T07:22:24;15.30;83.90
1259;DHT22;619;51.472;6.628;2023-03-26T07:24:50;15.30;83.90
1259;DHT22;619;51.472;6.628;2023-03-26T07:28:01;15.30;83.90
1259;DHT22;619;51.472;6.628;2023-03-26T07:30:55;15.40;84.00
1259;DHT22;619;51.472;6.628;2023-03-26T07:38:55;15.40;83.80
1259;DHT22;619;51.472;6.628;2023-03-26T07:46:53;15.50;83.90
1259;DHT22;619;51.472;6.628;2023-03-26T07:49:22;15.50;83.90
1259;DHT22;619;51.472;6.628;2023-03-26T07:51:48;15.60;83.90
1259;DHT22;619;51.472;6.628;2023-03-26T07:54:13;15.60;83.90
1259;DHT22;619;51.472;6.628;2023-03-26T07:56:56;15.60;83.90
1259;DHT22;619;51.472;6.628;2023-03-26T08:00:00;15.60;84.00
1259;DHT22;619;51.472;6.628;2023-03-26T08:05:36;15.70;83.80
1259;DHT22;619;51.472;6.628;2023-03-26T08:08:11;15.70;83.60
1259;DHT22;619;51.472;6.628;2023-03-26T08:13:27;15.70;83.60
1259;DHT22;619;51.472;6.628;2023-03-26T08:16:01;15.80;83.80
1259;DHT22;619;51.472;6.628;2023-03-26T08:21:22;15.80;83.70
1259;DHT22;619;51.472;6.628;2023-03-26T08:24:19;15.80;83.60
1259;DHT22;619;51.472;6.628;2023-03-26T08:32:14;15.90;83.90
1259;DHT22;619;51.472;6.628;2023-03-26T08:34:40;15.90;83.90
1259;DHT22;619;51.472;6.628;2023-03-26T08:37:06;16.00;84.00
1259;DHT22;619;51.472;6.628;2023-03-26T08:39:34;16.00;83.90
1259;DHT22;619;51.472;6.628;2023-03-26T08:56:36;16.20;84.10
1259;DHT22;619;51.472;6.628;2023-03-26T09:10:42;16.40;83.40
1259;DHT22;619;51.472;6.628;2023-03-26T09:26:59;16.10;82.70
1259;DHT22;619;51.472;6.628;2023-03-26T09:38:39;16.00;83.60
1259;DHT22;619;51.472;6.628;2023-03-26T10:04:00;15.90;84.10
1259;DHT22;619;51.472;6.628;2023-03-26T10:09:42;16.00;84.70
1259;DHT22;619;51.472;6.628;2023-03-26T10:20:31;16.10;84.20
1259;DHT22;619;51.472;6.628;2023-03-26T10:32:09;16.10;82.60
1259;DHT22;619;51.472;6.628;2023-03-26T10:46:22;16.10;82.40
1259;DHT22;619;51.472;6.628;2023-03-26T10:51:49;16.20;82.00
1259;DHT22;619;51.472;6.628;2023-03-26T10:57:05;16.20;81.10
1259;DHT22;619;51.472;6.628;2023-03-26T10:59:34;16.30;81.00
1259;DHT22;619;51.472;6.628;2023-03-26T11:26:28;16.40;78.70
1259;DHT22;619;51.472;6.628;2023-03-26T11:34:19;16.20;78.60
1259;DHT22;619;51.472;6.628;2023-03-26T11:36:52;16.20;78.30
1259;DHT22;619;51.472;6.628;2023-03-26T11:39:26;16.10;78.60
1259;DHT22;619;51.472;6.628;2023-03-26T11:42:14;16.10;78.70
1259;DHT22;619;51.472;6.628;2023-03-26T11:44:56;16.20;79.50
1259;DHT22;619;51.472;6.628;2023-03-26T11:47:29;16.20;79.90
1259;DHT22;619;51.472;6.628;2023-03-26T11:49:58;16.30;80.50
1259;DHT22;619;51.472;6.628;2023-03-26T11:52:31;16.40;80.70
1259;DHT22;619;51.472;6.628;2023-03-26T11:54:59;16.60;81.70
1259;DHT22;619;51.472;6.628;2023-03-26T11:57:30;16.70;80.80
1259;DHT22;619;51.472;6.628;2023-03-26T12:02:39;16.90;80.10
1259;DHT22;619;51.472;6.628;2023-03-26T12:05:20;17.00;80.00
1259;DHT22;619;51.472;6.628;2023-03-26T12:10:40;17.30;79.50
1259;DHT22;619;51.472;6.628;2023-03-26T12:15:57;17.60;79.60
1259;DHT22;619;51.472;6.628;2023-03-26T12:18:30;17.80;79.30
1259;DHT22;619;51.472;6.628;2023-03-26T12:21:11;18.00;79.00
1259;DHT22;619;51.472;6.628;2023-03-26T12:26:15;18.20;77.20
1259;DHT22;619;51.472;6.628;2023-03-26T12:28:47;18.30;77.10
1259;DHT22;619;51.472;6.628;2023-03-26T12:31:14;18.50;76.10
1259;DHT22;619;51.472;6.628;2023-03-26T12:33:44;18.50;74.70
1259;DHT22;619;51.472;6.628;2023-03-26T12:38:42;18.50;74.90
1259;DHT22;619;51.472;6.628;2023-03-26T12:41:11;18.50;75.30
1259;DHT22;619;51.472;6.628;2023-03-26T12:43:48;18.60;75.80
1259;DHT22;619;51.472;6.628;2023-03-26T12:48:55;18.70;75.50
1259;DHT22;619;51.472;6.628;2023-03-26T13:13:02;18.50;75.60
1259;DHT22;619;51.472;6.628;2023-03-26T13:15:35;18.50;75.90
1259;DHT22;619;51.472;6.628;2023-03-26T13:18:46;18.60;76.80
1259;DHT22;619;51.472;6.628;2023-03-26T13:29:45;18.80;77.20
1259;DHT22;619;51.472;6.628;2023-03-26T13:46:30;18.20;75.10
1259;DHT22;619;51.472;6.628;2023-03-26T13:49:04;18.10;74.80
1259;DHT22;619;51.472;6.628;2023-03-26T13:51:47;17.90;75.30
1259;DHT22;619;51.472;6.628;2023-03-26T13:54:29;17.80;75.90
1259;DHT22;619;51.472;6.628;2023-03-26T13:59:53;17.50;76.20
1259;DHT22;619;51.472;6.628;2023-03-26T14:02:24;17.30;76.00
1259;DHT22;619;51.472;6.628;2023-03-26T14:04:55;17.20;76.20
1259;DHT22;619;51.472;6.628;2023-03-26T14:08:31;17.00;76.70
1259;DHT22;619;51.472;6.628;2023-03-26T14:10:49;16.90;77.00
1259;DHT22;619;51.472;6.628;2023-03-26T14:13:21;16.70;77.00
1259;DHT22;619;51.472;6.628;2023-03-26T14:16:19;16.60;77.60
1259;DHT22;619;51.472;6.628;2023-03-26T14:18:48;16.50;78.10
1259;DHT22;619;51.472;6.628;2023-03-26T14:21:47;16.40;78.80
1259;DHT22;619;51.472;6.628;2023-03-26T14:27:12;16.30;79.80
1259;DHT22;619;51.472;6.628;2023-03-26T14:41:18;16.40;81.60
1259;DHT22;619;51.472;6.628;2023-03-26T14:47:11;16.50;80.70
1259;DHT22;619;51.472;6.628;2023-03-26T14:54:53;16.50;80.20
1259;DHT22;619;51.472;6.628;2023-03-26T15:11:18;16.30;80.90
1259;DHT22;619;51.472;6.628;2023-03-26T15:22:43;16.00;80.90
1259;DHT22;619;51.472;6.628;2023-03-26T15:25:41;15.90;81.30
1259;DHT22;619;51.472;6.628;2023-03-26T15:31:19;15.80;81.40
1259;DHT22;619;51.472;6.628;2023-03-26T15:51:03;15.40;82.40
1259;DHT22;619;51.472;6.628;2023-03-26T15:56:20;15.20;82.40
1259;DHT22;619;51.472;6.628;2023-03-26T16:01:55;14.90;82.10
1259;DHT22;619;51.472;6.628;2023-03-26T16:04:47;14.90;82.70
1259;DHT22;619;51.472;6.628;2023-03-26T16:15:28;14.90;82.80
1259;DHT22;619;51.472;6.628;2023-03-26T16:29:20;14.90;81.60
1259;DHT22;619;51.472;6.628;2023-03-26T16:35:03;14.90;81.10
1259;DHT22;619;51.472;6.628;2023-03-26T16:37:48;14.80;81.00
1259;DHT22;619;51.472;6.628;2023-03-26T16:57:18;14.90;82.20
1259;DHT22;619;51.472;6.628;2023-03-26T17:00:38;14.80;82.10
1259;DHT22;619;51.472;6.628;2023-03-26T17:11:18;14.50;80.00
1259;DHT22;619;51.472;6.628;2023-03-26T17:13:48;14.60;80.00
1259;DHT22;619;51.472;6.628;2023-03-26T17:16:34;14.40;79.80
1259;DHT22;619;51.472;6.628;2023-03-26T17:19:43;14.50;79.60
1259;DHT22;619;51.472;6.628;2023-03-26T17:33:50;14.00;78.40
1259;DHT22;619;51.472;6.628;2023-03-26T17:44:40;13.70;78.00
1259;DHT22;619;51.472;6.628;2023-03-26T17:47:18;13.70;78.30
1259;DHT22;619;51.472;6.628;2023-03-26T17:49:49;13.80;78.40
1259;DHT22;619;51.472;6.628;2023-03-26T17:52:25;13.70;78.10
1259;DHT22;619;51.472;6.628;2023-03-26T17:54:55;13.70;78.00
1259;DHT22;619;51.472;6.628;2023-03-26T17:57:24;13.60;78.40
1259;DHT22;619;51.472;6.628;2023-03-26T17:59:55;13.50;77.80
1259;DHT22;619;51.472;6.628;2023-03-26T18:02:36;13.50;77.70
1259;DHT22;619;51.472;6.628;2023-03-26T18:05:09;13.50;78.10
1259;DHT22;619;51.472;6.628;2023-03-26T18:18:33;13.30;76.60
1259;DHT22;619;51.472;6.628;2023-03-26T18:21:03;13.20;77.10
1259;DHT22;619;51.472;6.628;2023-03-26T18:23:40;13.20;77.30
1259;DHT22;619;51.472;6.628;2023-03-26T18:26:14;13.20;77.50
1259;DHT22;619;51.472;6.628;2023-03-26T18:28:53;13.20;77.20
1259;DHT22;619;51.472;6.628;2023-03-26T18:31:35;13.20;76.60
1259;DHT22;619;51.472;6.628;2023-03-26T18:34:14;13.10;77.00
1259;DHT22;619;51.472;6.628;2023-03-26T18:36:45;13.00;77.00
